Time;durP1;ratioP1;P1;durP2;ratioP2;P2;SDS_P1;SDS_P2;PMS_P1;PMS_P2;Temp;Humidity;BMP_temperature;BMP_pressure;BME280_temperature;BME280_humidity;BME280_pressure;Samples;Min_cycle;Max_cycle;Signal;HPM_P1;HPM_P2
2021/08/22 00:00:07;;;;;;;;;;;24.60;86.80;24.70;99788.00;;;;345473;28;82416;-92
2021/08/22 00:00:19;;;;;;;;;;;24.60;86.80;24.70;99799.00;;;;344892;28;92260;-92
2021/08/22 00:00:31;;;;;;;;;;;24.60;86.60;24.60;99794.00;;;;343846;28;82490;-94
2021/08/22 00:00:44;;;;;;;;;;;24.60;86.70;24.60;99788.00;;;;344748;28;90219;-93
2021/08/22 00:00:56;;;;;;;;;;;24.60;86.60;24.70;99792.00;;;;341145;28;83343;-93
2021/08/22 00:01:08;;;;;;;;;;;24.60;86.50;24.60;99794.00;;;;338946;28;92750;-92
2021/08/22 00:01:20;;;;;;;;;;;24.60;86.50;24.50;99795.00;;;;345282;28;83336;-93
2021/08/22 00:01:32;;;;;;;;;;;24.60;86.80;24.50;99794.00;;;;342076;28;90906;-93
2021/08/22 00:01:44;;;;;;;;;;;24.60;86.70;24.50;99791.00;;;;342295;28;83362;-92
2021/08/22 00:01:56;;;;;;;;;;;24.60;86.70;24.50;99790.00;;;;342073;28;91605;-93
2021/08/22 00:02:08;;;;;;;;;;;24.60;86.60;24.60;99793.00;;;;341047;28;83598;-93
2021/08/22 00:02:20;;;;;;;;;;;24.60;86.50;24.60;99797.00;;;;344715;28;91149;-93
2021/08/22 00:02:32;;;;;;;;;;;24.60;86.70;24.50;99792.00;;;;344290;28;82492;-92
2021/08/22 00:02:44;;;;;;;;;;;24.60;86.50;24.60;99800.00;;;;342106;28;87806;-93
2021/08/22 00:02:56;;;;;;;;;;;24.60;86.60;24.60;99795.00;;;;340750;28;83493;-93
2021/08/22 00:03:10;;;;;;;;;;;24.60;86.60;24.60;99800.00;;;;340633;28;88939;-93
2021/08/22 00:03:23;;;;;;;;;;;24.60;86.40;24.50;99793.00;;;;342569;28;82448;-93
2021/08/22 00:03:35;;;;;;;;;;;24.60;86.70;24.60;99789.00;;;;343134;28;90472;-93
2021/08/22 00:03:47;;;;;;;;;;;24.60;87.00;24.60;99799.00;;;;343848;28;82510;-93
2021/08/22 00:03:59;;;;;;;;;;;24.60;86.40;24.60;99799.00;;;;342117;28;90697;-93
2021/08/22 00:04:11;;;;;;;;;;;24.60;86.30;24.60;99798.00;;;;345227;28;83442;-93
2021/08/22 00:04:22;;;;;;;;;;;24.60;86.20;24.60;99797.00;;;;344425;28;90577;-94
2021/08/22 00:04:34;;;;;;;;;;;24.60;86.20;24.60;99796.00;;;;345133;28;83363;-93
2021/08/22 00:04:46;;;;;;;;;;;24.60;86.30;24.60;99793.00;;;;341943;28;90598;-91
2021/08/22 00:05:03;;;;;;;;;;;24.60;86.40;24.60;99800.00;;;;341211;28;83353;-93
2021/08/22 00:05:15;;;;;;;;;;;24.60;86.30;24.50;99789.00;;;;345483;28;91753;-94
2021/08/22 00:05:27;;;;;;;;;;;24.60;86.50;24.60;99800.00;;;;344958;28;83398;-93
2021/08/22 00:05:39;;;;;;;;;;;24.60;86.30;24.70;99801.00;;;;341958;28;91938;-94
2021/08/22 00:05:51;;;;;;;;;;;24.60;86.40;24.70;99801.00;;;;343728;28;82498;-93
2021/08/22 00:06:02;;;;;;;;;;;24.60;86.30;24.60;99795.00;;;;343146;28;90374;-93
2021/08/22 00:06:14;;;;;;;;;;;24.60;86.60;24.60;99798.00;;;;340916;28;82407;-94
2021/08/22 00:06:26;;;;;;;;;;;24.60;86.60;24.60;99794.00;;;;343209;28;91401;-93
2021/08/22 00:06:38;;;;;;;;;;;24.60;86.50;24.70;99797.00;;;;342439;28;82478;-93
2021/08/22 00:06:50;;;;;;;;;;;24.60;86.30;24.70;99799.00;;;;340668;28;90338;-91
2021/08/22 00:07:01;;;;;;;;;;;24.60;86.20;24.70;99800.00;;;;344750;28;82579;-94
2021/08/22 00:07:13;;;;;;;;;;;24.60;86.00;24.60;99795.00;;;;343153;28;91205;-93
2021/08/22 00:07:25;;;;;;;;;;;24.60;86.40;24.50;99796.00;;;;340989;28;82475;-93
2021/08/22 00:07:37;;;;;;;;;;;24.60;86.90;24.50;99796.00;;;;343254;28;92091;-93
2021/08/22 00:07:49;;;;;;;;;;;24.60;86.70;24.60;99801.00;;;;342330;28;83440;-93
2021/08/22 00:08:01;;;;;;;;;;;24.60;86.70;24.60;99794.00;;;;341723;28;90456;-92
2021/08/22 00:08:13;;;;;;;;;;;24.60;86.40;24.60;99801.00;;;;338863;28;82660;-93
2021/08/22 00:08:25;;;;;;;;;;;24.60;86.60;24.70;99799.00;;;;335225;29;91141;-94
2021/08/22 00:08:38;;;;;;;;;;;24.60;86.70;24.60;99796.00;;;;342491;28;82413;-94
2021/08/22 00:08:50;;;;;;;;;;;24.60;86.60;24.70;99798.00;;;;337739;28;90490;-94
2021/08/22 00:09:02;;;;;;;;;;;24.60;86.50;24.60;99798.00;;;;336856;28;82901;-94
2021/08/22 00:09:13;;;;;;;;;;;24.60;86.40;24.70;99796.00;;;;343117;28;91741;-93
2021/08/22 00:09:25;;;;;;;;;;;24.60;86.40;24.60;99805.00;;;;342624;28;82462;-92
2021/08/22 00:09:37;;;;;;;;;;;24.60;86.30;24.70;99799.00;;;;345013;28;90614;-93
2021/08/22 00:09:49;;;;;;;;;;;24.60;86.40;24.60;99798.00;;;;346543;28;83471;-93
2021/08/22 00:10:01;;;;;;;;;;;24.60;86.40;24.60;99802.00;;;;343782;28;91356;-94
2021/08/22 00:10:13;;;;;;;;;;;24.60;86.60;24.50;99798.00;;;;343898;28;82479;-94
2021/08/22 00:10:24;;;;;;;;;;;24.60;86.60;24.60;99804.00;;;;342284;28;90222;-94
2021/08/22 00:10:36;;;;;;;;;;;24.60;86.60;24.60;99808.00;;;;344197;28;82525;-94
2021/08/22 00:10:48;;;;;;;;;;;24.60;86.70;24.50;99798.00;;;;345038;28;90259;-93
2021/08/22 00:11:00;;;;;;;;;;;24.60;86.80;24.30;99802.00;;;;343764;28;83477;-93
2021/08/22 00:11:12;;;;;;;;;;;24.60;87.20;24.20;99804.00;;;;347032;28;93614;-94
2021/08/22 00:11:24;;;;;;;;;;;24.50;87.20;24.40;99800.00;;;;343859;28;83477;-93
2021/08/22 00:11:36;;;;;;;;;;;24.50;86.90;24.40;99796.00;;;;342687;28;90471;-94
2021/08/22 00:11:48;;;;;;;;;;;24.50;86.90;24.50;99805.00;;;;343914;28;82540;-93
2021/08/22 00:11:59;;;;;;;;;;;24.50;86.80;24.40;99798.00;;;;341887;28;90590;-93
2021/08/22 00:12:11;;;;;;;;;;;24.50;87.00;24.40;99804.00;;;;343665;28;82543;-93
2021/08/22 00:12:23;;;;;;;;;;;24.50;87.20;24.40;99806.00;;;;342082;28;92114;-93
2021/08/22 00:12:35;;;;;;;;;;;24.50;87.20;24.50;99801.00;;;;342656;28;82537;-93
2021/08/22 00:12:47;;;;;;;;;;;24.50;87.20;24.30;99798.00;;;;342304;28;90442;-93
2021/08/22 00:12:59;;;;;;;;;;;24.50;87.40;24.40;99805.00;;;;341288;28;83451;-93
2021/08/22 00:13:12;;;;;;;;;;;24.50;87.20;24.50;99807.00;;;;343679;28;91327;-94
2021/08/22 00:13:24;;;;;;;;;;;24.50;87.10;24.40;99807.00;;;;342818;28;82504;-93
2021/08/22 00:13:35;;;;;;;;;;;24.50;87.30;24.30;99805.00;;;;342280;28;89819;-94
2021/08/22 00:13:47;;;;;;;;;;;24.50;87.30;24.40;99798.00;;;;341274;28;82479;-93
2021/08/22 00:13:59;;;;;;;;;;;24.50;87.30;24.40;99799.00;;;;343130;28;90550;-93
2021/08/22 00:14:11;;;;;;;;;;;24.50;87.30;24.40;99792.00;;;;345162;28;83575;-93
2021/08/22 00:14:23;;;;;;;;;;;24.50;87.30;24.30;99801.00;;;;343266;28;90536;-94
2021/08/22 00:14:34;;;;;;;;;;;24.40;87.40;24.30;99800.00;;;;343862;28;82477;-93
2021/08/22 00:14:46;;;;;;;;;;;24.40;87.30;24.40;99803.00;;;;345939;28;90373;-93
2021/08/22 00:14:58;;;;;;;;;;;24.40;87.40;24.30;99806.00;;;;343571;28;83471;-93
2021/08/22 00:15:10;;;;;;;;;;;24.40;87.30;24.30;99807.00;;;;345845;28;91385;-93
2021/08/22 00:15:22;;;;;;;;;;;24.40;87.40;24.40;99801.00;;;;345233;28;82443;-94
2021/08/22 00:15:34;;;;;;;;;;;24.40;87.10;24.30;99802.00;;;;341755;28;90988;-93
2021/08/22 00:15:49;;;;;;;;;;;24.40;87.40;24.30;99804.00;;;;343937;28;83325;-93
2021/08/22 00:16:01;;;;;;;;;;;24.40;87.20;24.40;99803.00;;;;343288;28;90670;-94
2021/08/22 00:16:12;;;;;;;;;;;24.40;87.20;24.40;99801.00;;;;344934;28;82654;-93
2021/08/22 00:16:24;;;;;;;;;;;24.50;87.20;24.50;99801.00;;;;346159;28;90766;-93
2021/08/22 00:16:36;;;;;;;;;;;24.40;87.30;24.40;99797.00;;;;342523;28;82495;-93
2021/08/22 00:16:48;;;;;;;;;;;24.40;87.40;24.50;99797.00;;;;343432;28;91298;-93
2021/08/22 00:17:00;;;;;;;;;;;24.40;87.30;24.40;99797.00;;;;343904;28;82406;-93
2021/08/22 00:17:12;;;;;;;;;;;24.40;87.30;24.40;99795.00;;;;343098;28;92298;-94
2021/08/22 00:17:24;;;;;;;;;;;24.40;87.40;24.50;99795.00;;;;345129;28;83347;-93
2021/08/22 00:17:35;;;;;;;;;;;24.40;87.30;24.50;99794.00;;;;343246;28;91020;-93
2021/08/22 00:17:47;;;;;;;;;;;24.40;87.20;24.40;99798.00;;;;340956;28;82525;-93
2021/08/22 00:17:59;;;;;;;;;;;24.40;87.20;24.40;99794.00;;;;344486;28;91781;-93
2021/08/22 00:18:11;;;;;;;;;;;24.40;87.10;24.50;99793.00;;;;344923;28;83386;-92
2021/08/22 00:18:23;;;;;;;;;;;24.40;87.80;24.40;99793.00;;;;345946;28;90545;-93
2021/08/22 00:18:34;;;;;;;;;;;24.40;87.30;24.50;99792.00;;;;346261;28;83440;-94
2021/08/22 00:18:46;;;;;;;;;;;24.40;87.30;24.40;99800.00;;;;341730;28;90756;-93
2021/08/22 00:18:58;;;;;;;;;;;24.40;87.60;24.30;99797.00;;;;342069;28;82520;-93
2021/08/22 00:19:10;;;;;;;;;;;24.40;88.30;24.20;99800.00;;;;344542;28;91570;-93
2021/08/22 00:19:22;;;;;;;;;;;24.40;87.90;24.20;99799.00;;;;346268;28;82443;-93
2021/08/22 00:19:33;;;;;;;;;;;24.40;87.90;24.30;99790.00;;;;343090;28;92025;-93
2021/08/22 00:19:46;;;;;;;;;;;24.40;87.80;24.30;99791.00;;;;345017;28;83410;-93
2021/08/22 00:19:57;;;;;;;;;;;24.40;87.80;24.40;99796.00;;;;344660;28;90700;-94
2021/08/22 00:20:10;;;;;;;;;;;24.40;87.80;24.40;99797.00;;;;342953;28;83432;-93
2021/08/22 00:20:22;;;;;;;;;;;24.40;87.80;24.30;99798.00;;;;344513;28;92185;-94
2021/08/22 00:20:34;;;;;;;;;;;24.40;87.80;24.30;99803.00;;;;344529;28;82500;-93
2021/08/22 00:20:46;;;;;;;;;;;24.40;87.80;24.30;99797.00;;;;339090;28;92161;-92
2021/08/22 00:20:58;;;;;;;;;;;24.30;87.80;24.30;99800.00;;;;342081;28;83424;-93
2021/08/22 00:21:10;;;;;;;;;;;24.40;87.90;24.30;99795.00;;;;345593;28;92393;-93
2021/08/22 00:21:21;;;;;;;;;;;24.30;87.90;24.30;99804.00;;;;344927;28;83468;-93
2021/08/22 00:21:33;;;;;;;;;;;24.30;87.90;24.30;99796.00;;;;343047;28;90597;-93
2021/08/22 00:21:45;;;;;;;;;;;24.30;87.80;24.40;99801.00;;;;340872;28;82477;-93
2021/08/22 00:21:57;;;;;;;;;;;24.40;87.80;24.40;99804.00;;;;344715;28;91784;-93
2021/08/22 00:22:09;;;;;;;;;;;24.30;87.80;24.30;99804.00;;;;346284;28;83392;-93
2021/08/22 00:22:20;;;;;;;;;;;24.30;87.80;24.30;99795.00;;;;336528;28;91539;-93
2021/08/22 00:22:32;;;;;;;;;;;24.30;87.90;24.30;99804.00;;;;338071;28;82633;-94
2021/08/22 00:22:44;;;;;;;;;;;24.30;87.90;24.30;99809.00;;;;345940;28;91463;-93
2021/08/22 00:22:56;;;;;;;;;;;24.30;87.80;24.30;99810.00;;;;345019;28;83311;-93
2021/08/22 00:23:08;;;;;;;;;;;24.30;87.90;24.20;99804.00;;;;345843;28;91648;-93
2021/08/22 00:23:20;;;;;;;;;;;24.30;87.90;24.30;99796.00;;;;344229;28;82795;-93
2021/08/22 00:23:32;;;;;;;;;;;24.30;88.00;24.30;99808.00;;;;340457;28;90482;-92
2021/08/22 00:23:44;;;;;;;;;;;24.30;87.90;24.30;99798.00;;;;344980;28;82470;-93
2021/08/22 00:23:56;;;;;;;;;;;24.40;87.90;24.30;99796.00;;;;344662;28;91446;-93
2021/08/22 00:24:08;;;;;;;;;;;24.40;87.90;24.30;99800.00;;;;343355;28;83507;-93
2021/08/22 00:24:20;;;;;;;;;;;24.40;87.80;24.30;99802.00;;;;343224;28;90940;-93
2021/08/22 00:24:32;;;;;;;;;;;24.30;87.80;24.30;99803.00;;;;342278;28;83396;-93
2021/08/22 00:24:43;;;;;;;;;;;24.30;88.00;24.20;99803.00;;;;345913;28;91928;-92
2021/08/22 00:24:55;;;;;;;;;;;24.30;88.00;24.20;99802.00;;;;342412;28;83368;-93
2021/08/22 00:25:07;;;;;;;;;;;24.30;88.30;24.20;99807.00;;;;341727;28;91600;-94
2021/08/22 00:25:19;;;;;;;;;;;24.30;88.10;24.20;99805.00;;;;343494;28;82454;-93
2021/08/22 00:25:31;;;;;;;;;;;24.30;88.00;24.30;99797.00;;;;340478;28;90455;-94
2021/08/22 00:25:43;;;;;;;;;;;24.30;87.90;24.30;99804.00;;;;343710;28;82486;-93
2021/08/22 00:25:59;;;;;;;;;;;24.30;88.10;24.30;99809.00;;;;343018;28;91767;-93
2021/08/22 00:26:11;;;;;;;;;;;24.30;88.10;24.20;99806.00;;;;347473;28;83580;-93
2021/08/22 00:26:23;;;;;;;;;;;24.30;88.20;24.20;99800.00;;;;337671;28;90566;-93
2021/08/22 00:26:35;;;;;;;;;;;24.30;87.90;24.30;99808.00;;;;342820;28;83683;-93
2021/08/22 00:26:47;;;;;;;;;;;24.30;87.80;24.30;99806.00;;;;343232;28;91512;-93
2021/08/22 00:26:58;;;;;;;;;;;24.30;88.70;24.20;99809.00;;;;343610;28;82546;-93
2021/08/22 00:27:11;;;;;;;;;;;24.30;88.30;24.20;99795.00;;;;341724;28;91562;-93
2021/08/22 00:27:23;;;;;;;;;;;24.30;88.10;24.30;99806.00;;;;342351;28;82673;-93
2021/08/22 00:27:35;;;;;;;;;;;24.30;88.10;24.30;99801.00;;;;341639;28;92036;-93
2021/08/22 00:27:47;;;;;;;;;;;24.30;88.00;24.30;99812.00;;;;343700;28;82479;-93
2021/08/22 00:27:59;;;;;;;;;;;24.30;87.90;24.20;99808.00;;;;343094;28;91741;-93
2021/08/22 00:28:11;;;;;;;;;;;24.30;88.00;24.30;99800.00;;;;344848;28;82572;-94
2021/08/22 00:28:22;;;;;;;;;;;24.30;88.10;24.30;99801.00;;;;343119;28;91764;-94
2021/08/22 00:28:34;;;;;;;;;;;24.30;88.10;24.20;99799.00;;;;342298;28;82600;-92
2021/08/22 00:28:46;;;;;;;;;;;24.30;88.00;24.30;99802.00;;;;344581;28;90615;-93
2021/08/22 00:28:58;;;;;;;;;;;24.30;87.90;24.30;99808.00;;;;346361;28;83440;-93
2021/08/22 00:29:10;;;;;;;;;;;24.30;88.10;24.10;99804.00;;;;341722;28;91444;-93
2021/08/22 00:29:22;;;;;;;;;;;24.30;88.50;24.20;99808.00;;;;346269;28;83510;-93
2021/08/22 00:29:34;;;;;;;;;;;24.30;88.50;24.20;99807.00;;;;344463;28;90829;-93
2021/08/22 00:29:45;;;;;;;;;;;24.20;88.20;24.30;99806.00;;;;343486;28;83335;-93
2021/08/22 00:29:57;;;;;;;;;;;24.30;88.30;24.30;99804.00;;;;343184;28;91705;-93
2021/08/22 00:30:10;;;;;;;;;;;24.30;88.30;24.30;99807.00;;;;344946;28;83393;-92
2021/08/22 00:30:22;;;;;;;;;;;24.30;88.10;24.30;99811.00;;;;344746;28;90440;-93
2021/08/22 00:30:34;;;;;;;;;;;24.30;87.90;24.30;99807.00;;;;344774;28;83432;-93
2021/08/22 00:30:45;;;;;;;;;;;24.30;87.80;24.30;99808.00;;;;343178;28;90784;-93
2021/08/22 00:30:58;;;;;;;;;;;24.30;88.20;24.20;99810.00;;;;343625;28;82588;-93
2021/08/22 00:31:10;;;;;;;;;;;24.30;88.30;24.10;99806.00;;;;344312;28;92752;-93
2021/08/22 00:31:22;;;;;;;;;;;24.30;88.20;24.20;99810.00;;;;344831;28;82482;-92
2021/08/22 00:31:33;;;;;;;;;;;24.20;88.20;24.30;99806.00;;;;345588;28;91950;-93
2021/08/22 00:31:45;;;;;;;;;;;24.30;88.10;24.30;99804.00;;;;344970;28;83352;-94
2021/08/22 00:31:57;;;;;;;;;;;24.20;88.20;24.20;99804.00;;;;344469;28;92123;-94
2021/08/22 00:32:09;;;;;;;;;;;24.30;88.30;24.20;99801.00;;;;344834;28;83364;-91
2021/08/22 00:32:21;;;;;;;;;;;24.20;88.20;24.20;99808.00;;;;344366;28;91782;-93
2021/08/22 00:32:36;;;;;;;;;;;24.20;87.80;24.30;99802.00;;;;340964;28;82460;-93
2021/08/22 00:32:48;;;;;;;;;;;24.20;87.70;24.30;99800.00;;;;341608;28;91527;-94
2021/08/22 00:33:00;;;;;;;;;;;24.20;88.00;24.30;99811.00;;;;342301;28;83408;-93
2021/08/22 00:33:13;;;;;;;;;;;24.20;88.20;24.30;99808.00;;;;341486;28;92213;-94
2021/08/22 00:33:24;;;;;;;;;;;24.20;88.20;24.30;99810.00;;;;345772;28;83617;-93
2021/08/22 00:33:36;;;;;;;;;;;24.30;88.30;24.30;99803.00;;;;344468;28;89721;-94
2021/08/22 00:33:48;;;;;;;;;;;24.30;88.30;24.30;99808.00;;;;343603;28;83401;-93
2021/08/22 00:34:00;;;;;;;;;;;24.30;88.30;24.30;99819.00;;;;345782;28;92510;-94
2021/08/22 00:34:12;;;;;;;;;;;24.30;88.20;24.20;99805.00;;;;343416;28;82553;-93
2021/08/22 00:34:24;;;;;;;;;;;24.30;88.20;24.30;99805.00;;;;341847;28;90333;-93
2021/08/22 00:34:35;;;;;;;;;;;24.30;88.30;24.30;99817.00;;;;344921;28;82345;-94
2021/08/22 00:34:47;;;;;;;;;;;24.30;88.30;24.30;99809.00;;;;341759;28;91771;-93
2021/08/22 00:34:59;;;;;;;;;;;24.30;88.30;24.30;99817.00;;;;343495;28;83421;-93
2021/08/22 00:35:11;;;;;;;;;;;24.30;88.30;24.20;99813.00;;;;341552;28;91845;-93
2021/08/22 00:35:23;;;;;;;;;;;24.30;88.40;24.20;99804.00;;;;342300;28;82485;-94
2021/08/22 00:35:34;;;;;;;;;;;24.30;88.30;24.30;99809.00;;;;343081;28;91343;-93
2021/08/22 00:35:46;;;;;;;;;;;24.30;88.30;24.20;99810.00;;;;343768;28;83334;-93
2021/08/22 00:35:58;;;;;;;;;;;24.30;88.50;24.20;99806.00;;;;340649;28;91610;-93
2021/08/22 00:36:10;;;;;;;;;;;24.30;88.40;24.20;99807.00;;;;344444;28;82574;-93
2021/08/22 00:36:22;;;;;;;;;;;24.30;88.40;24.20;99817.00;;;;343104;28;92139;-93
2021/08/22 00:36:33;;;;;;;;;;;24.20;88.40;24.20;99811.00;;;;343894;28;83443;-93
2021/08/22 00:36:45;;;;;;;;;;;24.20;88.60;24.20;99807.00;;;;343217;28;90880;-93
2021/08/22 00:36:57;;;;;;;;;;;24.20;88.70;24.20;99807.00;;;;343531;28;82412;-93
2021/08/22 00:37:09;;;;;;;;;;;24.20;88.80;24.30;99804.00;;;;344522;28;92798;-93
2021/08/22 00:37:21;;;;;;;;;;;24.20;89.20;24.20;99807.00;;;;343637;28;82497;-93
2021/08/22 00:37:33;;;;;;;;;;;24.20;88.50;24.20;99810.00;;;;340478;28;89547;-93
2021/08/22 00:37:44;;;;;;;;;;;24.20;88.40;24.30;99817.00;;;;342007;28;82692;-94
2021/08/22 00:37:56;;;;;;;;;;;24.20;88.30;24.30;99806.00;;;;344429;28;90167;-93
2021/08/22 00:38:08;;;;;;;;;;;24.30;88.40;24.30;99809.00;;;;343279;28;83386;-94
2021/08/22 00:38:20;;;;;;;;;;;24.30;88.40;24.30;99811.00;;;;341680;28;91828;-93
2021/08/22 00:38:33;;;;;;;;;;;24.30;88.40;24.30;99804.00;;;;336679;28;83513;-93
2021/08/22 00:38:47;;;;;;;;;;;24.30;88.30;24.20;99811.00;;;;342932;28;90846;-93
2021/08/22 00:38:59;;;;;;;;;;;24.30;88.40;24.10;99812.00;;;;344921;28;82489;-94
2021/08/22 00:39:11;;;;;;;;;;;24.30;88.60;24.20;99810.00;;;;343107;28;91220;-93
2021/08/22 00:39:27;;;;;;;;;;;24.20;88.40;24.20;99819.00;;;;340725;28;83529;-93
2021/08/22 00:39:39;;;;;;;;;;;24.20;88.50;24.20;99818.00;;;;341712;28;91756;-92
2021/08/22 00:39:53;;;;;;;;;;;24.20;88.50;24.20;99809.00;;;;339817;28;82478;-94
2021/08/22 00:40:05;;;;;;;;;;;24.20;88.40;24.20;99817.00;;;;340408;28;90599;-92
2021/08/22 00:40:17;;;;;;;;;;;24.30;88.50;24.00;99806.00;;;;342130;28;83389;-94
2021/08/22 00:40:29;;;;;;;;;;;24.20;88.40;24.10;99810.00;;;;340505;28;91560;-93
2021/08/22 00:40:41;;;;;;;;;;;24.20;88.40;24.20;99810.00;;;;342252;28;82506;-94
2021/08/22 00:40:53;;;;;;;;;;;24.20;88.30;24.20;99807.00;;;;334967;29;90932;-93
2021/08/22 00:41:05;;;;;;;;;;;24.20;88.20;24.30;99810.00;;;;340812;28;83415;-93
2021/08/22 00:41:16;;;;;;;;;;;24.20;88.20;24.20;99811.00;;;;335353;29;92166;-93
2021/08/22 00:41:29;;;;;;;;;;;24.20;88.50;24.20;99810.00;;;;342019;28;82567;-92
2021/08/22 00:41:41;;;;;;;;;;;24.20;88.60;24.20;99812.00;;;;341684;28;91600;-92
2021/08/22 00:41:53;;;;;;;;;;;24.20;88.50;24.10;99819.00;;;;341879;28;83474;-94
2021/08/22 00:42:05;;;;;;;;;;;24.20;88.30;24.10;99810.00;;;;339200;28;91213;-93
2021/08/22 00:42:16;;;;;;;;;;;24.20;88.30;24.00;99806.00;;;;342092;28;83416;-93
2021/08/22 00:42:32;;;;;;;;;;;24.20;88.40;24.00;99813.00;;;;340270;28;90863;-93
2021/08/22 00:42:46;;;;;;;;;;;24.20;88.40;24.00;99812.00;;;;343472;28;83364;-93
2021/08/22 00:42:58;;;;;;;;;;;24.20;88.50;24.00;99822.00;;;;343130;28;90245;-93
2021/08/22 00:43:10;;;;;;;;;;;24.20;88.40;24.00;99819.00;;;;339528;28;82511;-93
2021/08/22 00:43:22;;;;;;;;;;;24.10;88.50;24.00;99811.00;;;;341647;28;93044;-93
2021/08/22 00:43:35;;;;;;;;;;;24.10;88.50;24.10;99813.00;;;;340826;28;82545;-93
2021/08/22 00:43:46;;;;;;;;;;;24.10;88.40;24.10;99809.00;;;;337704;28;90567;-93
2021/08/22 00:43:58;;;;;;;;;;;24.10;88.50;24.10;99812.00;;;;335445;28;83364;-93
2021/08/22 00:44:10;;;;;;;;;;;24.10;88.80;24.00;99805.00;;;;341007;28;90893;-93
2021/08/22 00:44:22;;;;;;;;;;;24.10;88.70;24.00;99807.00;;;;342064;28;83422;-93
2021/08/22 00:44:34;;;;;;;;;;;24.10;88.50;24.00;99819.00;;;;342994;28;92090;-93
2021/08/22 00:44:46;;;;;;;;;;;24.10;88.80;24.00;99811.00;;;;343507;28;82455;-93
2021/08/22 00:45:02;;;;;;;;;;;24.10;88.70;24.00;99809.00;;;;343079;28;91575;-93
2021/08/22 00:45:14;;;;;;;;;;;24.10;88.70;24.00;99813.00;;;;342296;28;83389;-93
2021/08/22 00:45:26;;;;;;;;;;;24.10;89.20;24.00;99812.00;;;;339069;28;92571;-93
2021/08/22 00:45:37;;;;;;;;;;;24.10;88.80;23.90;99808.00;;;;342369;28;82402;-93
2021/08/22 00:45:49;;;;;;;;;;;24.10;88.90;24.00;99812.00;;;;341923;28;90413;-92
2021/08/22 00:46:01;;;;;;;;;;;24.10;88.80;24.00;99822.00;;;;344791;28;84005;-94
2021/08/22 00:46:13;;;;;;;;;;;24.00;88.70;24.00;99813.00;;;;341356;28;90611;-93
2021/08/22 00:46:26;;;;;;;;;;;24.10;88.80;24.00;99817.00;;;;340802;28;83433;-93
2021/08/22 00:46:38;;;;;;;;;;;24.00;88.80;24.10;99819.00;;;;341841;28;91896;-93
2021/08/22 00:46:53;;;;;;;;;;;24.10;88.50;24.00;99819.00;;;;343286;28;83535;-93
2021/08/22 00:47:05;;;;;;;;;;;24.10;88.80;24.10;99821.00;;;;343012;28;90755;-93
2021/08/22 00:47:17;;;;;;;;;;;24.10;88.80;24.10;99818.00;;;;344029;28;83255;-93
2021/08/22 00:47:29;;;;;;;;;;;24.10;88.70;24.10;99810.00;;;;341648;28;92700;-93
2021/08/22 00:47:47;;;;;;;;;;;24.10;88.90;24.10;99812.00;;;;343526;28;82588;-93
2021/08/22 00:47:59;;;;;;;;;;;24.00;88.70;24.10;99812.00;;;;344246;28;90556;-93
2021/08/22 00:48:12;;;;;;;;;;;24.10;88.70;24.10;99812.00;;;;343136;28;83512;-93
2021/08/22 00:48:27;;;;;;;;;;;24.10;88.80;24.00;99812.00;;;;341793;28;90937;-93
2021/08/22 00:48:40;;;;;;;;;;;24.10;89.00;24.10;99817.00;;;;342048;28;83446;-93
2021/08/22 00:48:52;;;;;;;;;;;24.10;88.80;24.10;99821.00;;;;343052;28;91494;-93
2021/08/22 00:49:04;;;;;;;;;;;24.00;88.70;24.10;99818.00;;;;343340;28;82352;-92
2021/08/22 00:49:16;;;;;;;;;;;24.00;88.70;24.10;99817.00;;;;343041;28;90224;-93
2021/08/22 00:49:28;;;;;;;;;;;24.10;88.70;24.00;99817.00;;;;343617;28;83351;-93
2021/08/22 00:49:40;;;;;;;;;;;24.10;88.70;24.10;99813.00;;;;340337;28;91800;-94
2021/08/22 00:49:52;;;;;;;;;;;24.10;88.50;24.00;99820.00;;;;340757;28;83433;-93
2021/08/22 00:50:04;;;;;;;;;;;24.10;88.70;24.00;99824.00;;;;341786;28;90566;-92
2021/08/22 00:50:20;;;;;;;;;;;24.10;88.80;24.00;99821.00;;;;342123;28;83345;-93
2021/08/22 00:50:33;;;;;;;;;;;24.10;88.80;24.00;99820.00;;;;340434;28;90512;-93
2021/08/22 00:50:45;;;;;;;;;;;24.10;88.80;24.10;99817.00;;;;342185;28;82562;-93
2021/08/22 00:50:58;;;;;;;;;;;24.10;88.70;24.10;99813.00;;;;343024;28;91858;-93
2021/08/22 00:51:13;;;;;;;;;;;24.10;88.70;24.10;99819.00;;;;344550;28;83471;-94
2021/08/22 00:51:25;;;;;;;;;;;24.10;88.70;24.10;99824.00;;;;336159;28;92409;-94
2021/08/22 00:51:39;;;;;;;;;;;24.10;88.80;24.00;99828.00;;;;341947;28;82585;-93
2021/08/22 00:51:51;;;;;;;;;;;24.10;88.80;24.10;99823.00;;;;334834;29;91871;-93
2021/08/22 00:52:05;;;;;;;;;;;24.10;88.80;24.10;99826.00;;;;335489;29;82559;-94
2021/08/22 00:52:16;;;;;;;;;;;24.10;88.70;24.00;99826.00;;;;341884;28;91874;-93
2021/08/22 00:52:28;;;;;;;;;;;24.10;88.80;24.10;99820.00;;;;332913;29;83423;-92
2021/08/22 00:52:40;;;;;;;;;;;24.10;88.90;24.10;99826.00;;;;334831;28;90314;-93
2021/08/22 00:52:53;;;;;;;;;;;24.10;89.00;24.10;99823.00;;;;344789;28;82573;-94
2021/08/22 00:53:06;;;;;;;;;;;24.10;88.80;24.10;99824.00;;;;342286;28;90661;-94
2021/08/22 00:53:17;;;;;;;;;;;24.10;88.80;24.10;99826.00;;;;342495;28;83572;-93
2021/08/22 00:53:31;;;;;;;;;;;24.10;88.90;24.00;99827.00;;;;343079;28;91408;-93
2021/08/22 00:53:44;;;;;;;;;;;24.10;89.00;24.00;99826.00;;;;342037;28;83548;-93
2021/08/22 00:53:55;;;;;;;;;;;24.10;88.90;24.00;99833.00;;;;343075;28;91142;-93
2021/08/22 00:54:08;;;;;;;;;;;24.10;89.00;24.00;99832.00;;;;344705;28;83368;-92
2021/08/22 00:54:19;;;;;;;;;;;24.10;89.50;24.10;99830.00;;;;342991;28;91859;-93
2021/08/22 00:54:34;;;;;;;;;;;24.10;88.80;24.10;99824.00;;;;343432;28;83442;-93
2021/08/22 00:54:46;;;;;;;;;;;24.10;88.90;24.00;99826.00;;;;341739;28;90939;-93
2021/08/22 00:54:58;;;;;;;;;;;24.10;89.00;24.00;99825.00;;;;343338;28;82516;-93
2021/08/22 00:55:10;;;;;;;;;;;24.00;89.00;24.00;99829.00;;;;344287;28;91852;-93
2021/08/22 00:55:22;;;;;;;;;;;24.00;89.00;24.00;99832.00;;;;340720;28;83344;-93
2021/08/22 00:55:34;;;;;;;;;;;24.10;89.20;24.00;99821.00;;;;341650;28;90964;-92
2021/08/22 00:55:45;;;;;;;;;;;24.10;89.20;23.90;99826.00;;;;344976;28;83510;-92
2021/08/22 00:55:58;;;;;;;;;;;24.00;89.30;23.90;99834.00;;;;341708;28;92511;-92
2021/08/22 00:56:10;;;;;;;;;;;24.00;89.30;23.80;99826.00;;;;346151;28;83405;-93
2021/08/22 00:56:22;;;;;;;;;;;24.00;89.40;23.80;99829.00;;;;340723;28;91010;-93
2021/08/22 00:56:34;;;;;;;;;;;24.00;89.40;23.80;99832.00;;;;342373;28;83416;-93
2021/08/22 00:56:46;;;;;;;;;;;24.00;89.50;23.90;99835.00;;;;341892;28;89968;-92
2021/08/22 00:56:57;;;;;;;;;;;24.00;89.20;23.90;99824.00;;;;342457;28;82568;-92
2021/08/22 00:57:10;;;;;;;;;;;24.00;89.20;24.00;99826.00;;;;344551;28;89415;-94
2021/08/22 00:57:22;;;;;;;;;;;24.00;89.30;23.90;99830.00;;;;345224;28;83396;-93
2021/08/22 00:57:34;;;;;;;;;;;24.00;89.50;23.90;99830.00;;;;339401;28;87845;-93
2021/08/22 00:57:46;;;;;;;;;;;24.00;89.50;23.90;99830.00;;;;344922;28;82622;-93
2021/08/22 00:57:57;;;;;;;;;;;24.00;89.40;23.90;99831.00;;;;342007;28;91121;-93
2021/08/22 00:58:09;;;;;;;;;;;24.00;89.50;23.90;99826.00;;;;343819;28;83468;-93
2021/08/22 00:58:21;;;;;;;;;;;24.00;89.50;23.90;99834.00;;;;343285;28;91864;-93
2021/08/22 00:58:33;;;;;;;;;;;24.00;89.40;24.00;99828.00;;;;343723;28;82527;-93
2021/08/22 00:58:46;;;;;;;;;;;24.00;89.30;24.00;99826.00;;;;343140;28;90770;-93
2021/08/22 00:59:04;;;;;;;;;;;24.00;89.20;24.00;99831.00;;;;342301;28;82498;-93
2021/08/22 00:59:17;;;;;;;;;;;24.00;89.20;24.00;99831.00;;;;344651;28;90385;-93
2021/08/22 00:59:29;;;;;;;;;;;24.00;89.30;24.00;99833.00;;;;342429;28;82524;-93
2021/08/22 00:59:41;;;;;;;;;;;24.00;89.20;24.00;99826.00;;;;343219;28;90829;-93
2021/08/22 00:59:53;;;;;;;;;;;24.00;89.10;23.90;99831.00;;;;343539;28;83387;-94
2021/08/22 01:00:09;;;;;;;;;;;24.00;89.10;24.00;99823.00;;;;343089;28;92709;-93
2021/08/22 01:00:21;;;;;;;;;;;24.00;89.10;24.00;99829.00;;;;341163;28;83401;-93